Time;durP1;ratioP1;P1;durP2;ratioP2;P2;SDS_P1;SDS_P2;PMS_P1;PMS_P2;Temp;Humidity;BMP_temperature;BMP_pressure;BME280_temperature;BME280_humidity;BME280_pressure;Samples;Min_cycle;Max_cycle;Signal;HPM_P1;HPM_P2
2023/05/27 00:01:46;;;;;;;79.07;3.07;;;19.10;38.20;;;;;;5054229;28;20298;-77
2023/05/27 00:04:12;;;;;;;79.17;3.00;;;19.20;37.30;;;;;;5053222;28;20523;-77
2023/05/27 00:06:38;;;;;;;79.53;3.23;;;19.00;38.60;;;;;;5052967;28;20179;-77
2023/05/27 00:09:04;;;;;;;78.60;2.70;;;19.00;38.90;;;;;;5053758;28;20227;-77
2023/05/27 00:11:29;;;;;;;80.13;2.97;;;18.80;39.00;;;;;;5053800;28;20195;-77
2023/05/27 00:13:55;;;;;;;79.03;2.70;;;18.80;38.70;;;;;;5053433;28;20670;-77
2023/05/27 00:16:20;;;;;;;79.70;3.00;;;18.80;39.00;;;;;;5055006;28;20188;-77
2023/05/27 00:18:47;;;;;;;79.03;2.83;;;18.70;39.40;;;;;;5053659;28;20637;-77
2023/05/27 00:21:13;;;;;;;79.10;3.00;;;18.80;38.90;;;;;;5053253;28;20192;-77
2023/05/27 00:23:39;;;;;;;78.73;2.50;;;18.90;38.60;;;;;;5052481;28;20464;-77
2023/05/27 00:26:05;;;;;;;81.20;3.70;;;18.90;37.80;;;;;;5053464;28;20496;-77
2023/05/27 00:28:31;;;;;;;79.20;3.07;;;18.80;38.60;;;;;;5053307;28;20840;-77
2023/05/27 00:30:57;;;;;;;79.80;3.10;;;18.80;38.70;;;;;;5053300;28;20179;-78
2023/05/27 00:33:23;;;;;;;80.40;3.30;;;18.80;38.00;;;;;;5052633;28;20533;-77
2023/05/27 00:35:49;;;;;;;79.13;2.77;;;18.70;38.60;;;;;;5053017;28;20495;-77
2023/05/27 00:38:14;;;;;;;79.03;2.63;;;18.60;40.20;;;;;;5053251;28;20418;-77
2023/05/27 00:40:40;;;;;;;78.97;2.50;;;18.70;38.70;;;;;;5053056;28;20257;-77
2023/05/27 00:43:06;;;;;;;78.83;2.40;;;18.70;39.30;;;;;;5052339;28;20195;-77
2023/05/27 00:45:32;;;;;;;83.27;2.87;;;18.70;38.90;;;;;;5053086;28;20464;-77
2023/05/27 00:48:01;;;;;;;79.03;2.60;;;18.70;39.00;;;;;;5053036;28;20667;-77
2023/05/27 00:50:27;;;;;;;79.57;2.80;;;18.60;38.60;;;;;;5052678;28;20293;-78
2023/05/27 00:52:55;;;;;;;79.23;2.60;;;18.50;39.00;;;;;;5052120;28;20456;-78
2023/05/27 00:55:21;;;;;;;79.60;2.70;;;18.60;37.80;;;;;;5052889;28;20172;-77
2023/05/27 00:57:47;;;;;;;80.27;3.00;;;18.60;38.30;;;;;;5051661;28;20434;-77
2023/05/27 01:00:14;;;;;;;79.80;2.80;;;18.50;39.30;;;;;;5052564;28;20595;-78
2023/05/27 01:02:41;;;;;;;79.73;2.93;;;18.50;38.60;;;;;;5051741;28;20464;-77
2023/05/27 01:05:08;;;;;;;79.57;2.47;;;18.50;39.10;;;;;;5050905;28;20469;-78
2023/05/27 01:07:50;;;;;;;79.77;2.67;;;18.30;39.40;;;;;;5052675;28;20422;-78
2023/05/27 01:10:27;;;;;;;80.60;2.50;;;18.40;38.90;;;;;;5052286;28;20434;-77
2023/05/27 01:13:09;;;;;;;80.67;2.83;;;18.40;39.20;;;;;;5051483;28;20439;-78
2023/05/27 01:15:35;;;;;;;82.60;3.30;;;18.40;37.70;;;;;;5052577;28;20448;-77
2023/05/27 01:18:05;;;;;;;79.57;2.70;;;18.50;37.40;;;;;;5051219;28;20500;-77
2023/05/27 01:20:32;;;;;;;81.47;3.53;;;18.50;36.50;;;;;;5052421;28;20391;-77
2023/05/27 01:22:59;;;;;;;80.33;2.70;;;18.50;35.20;;;;;;5051388;28;20558;-77
2023/05/27 01:25:25;;;;;;;79.80;2.63;;;18.50;34.70;;;;;;5052114;28;20398;-77
2023/05/27 01:27:52;;;;;;;80.57;2.60;;;18.50;35.60;;;;;;5052416;28;20410;-77
2023/05/27 01:30:20;;;;;;;85.77;3.00;;;18.40;35.30;;;;;;5052428;28;20519;-77
2023/05/27 01:32:51;;;;;;;83.77;3.67;;;18.40;34.30;;;;;;5051388;28;20421;-77
2023/05/27 01:35:44;;;;;;;80.47;3.10;;;18.40;35.00;;;;;;5052470;28;20402;-77
2023/05/27 01:38:14;;;;;;;82.00;3.07;;;18.50;34.20;;;;;;5052417;28;20410;-76
2023/05/27 01:40:40;;;;;;;80.20;2.60;;;18.40;35.40;;;;;;5051958;28;20544;-77
2023/05/27 01:43:08;;;;;;;80.20;2.80;;;18.30;33.90;;;;;;5051446;28;20425;-76
2023/05/27 01:45:34;;;;;;;79.20;2.20;;;18.40;33.60;;;;;;5052335;28;20412;-77
2023/05/27 01:48:00;;;;;;;79.63;2.50;;;18.40;33.00;;;;;;5052192;28;20776;-77
2023/05/27 01:50:26;;;;;;;79.37;2.30;;;18.30;35.10;;;;;;5053149;28;20402;-77
2023/05/27 01:52:51;;;;;;;79.40;2.30;;;18.40;33.90;;;;;;5050656;28;20828;-76
2023/05/27 01:55:17;;;;;;;79.63;2.43;;;18.20;36.00;;;;;;5051879;28;20175;-76
2023/05/27 01:57:43;;;;;;;79.80;2.50;;;17.80;37.40;;;;;;5051484;28;20226;-77
2023/05/27 02:00:09;;;;;;;80.00;2.50;;;17.70;37.20;;;;;;5051582;28;20175;-76
2023/05/27 02:02:36;;;;;;;80.60;3.07;;;17.70;38.10;;;;;;5050574;28;20497;-77
2023/05/27 02:05:02;;;;;;;79.87;2.60;;;17.80;37.70;;;;;;5051490;28;20850;-76
2023/05/27 02:07:27;;;;;;;79.80;2.80;;;17.80;38.10;;;;;;5051173;28;20401;-77
2023/05/27 02:09:53;;;;;;;79.90;2.77;;;17.60;38.20;;;;;;5051332;28;20459;-77
2023/05/27 02:12:19;;;;;;;80.17;2.53;;;17.50;38.80;;;;;;5051273;28;20692;-76
2023/05/27 02:14:45;;;;;;;79.53;2.30;;;17.50;37.60;;;;;;5050669;28;20732;-76
2023/05/27 02:17:14;;;;;;;79.97;2.70;;;17.40;38.00;;;;;;5051476;28;20407;-77
2023/05/27 02:19:40;;;;;;;80.07;2.77;;;17.40;38.70;;;;;;5051048;28;20982;-76
2023/05/27 02:22:06;;;;;;;79.70;2.27;;;17.30;39.10;;;;;;5051057;28;20434;-76
2023/05/27 02:24:32;;;;;;;80.23;2.87;;;17.20;39.40;;;;;;5050499;28;20517;-77
2023/05/27 02:26:58;;;;;;;80.80;2.70;;;17.20;39.80;;;;;;5051273;28;21051;-77
2023/05/27 02:29:23;;;;;;;79.77;2.43;;;17.20;39.10;;;;;;5051388;28;20786;-76
2023/05/27 02:31:49;;;;;;;80.90;3.10;;;17.20;39.00;;;;;;5055043;28;20865;-77
2023/05/27 02:34:15;;;;;;;80.00;2.53;;;17.00;39.10;;;;;;5054258;28;20168;-77
2023/05/27 02:36:40;;;;;;;80.00;2.60;;;17.10;39.70;;;;;;5055035;28;20249;-77
2023/05/27 02:39:06;;;;;;;79.77;2.23;;;17.00;39.80;;;;;;5055219;28;20172;-77
2023/05/27 02:41:31;;;;;;;80.30;2.43;;;16.90;40.80;;;;;;5054183;28;20250;-76
2023/05/27 02:43:57;;;;;;;80.27;2.57;;;16.90;40.80;;;;;;5054372;28;20238;-77
2023/05/27 02:46:23;;;;;;;81.60;3.00;;;16.90;40.20;;;;;;5061831;28;20239;-77
2023/05/27 02:48:48;;;;;;;80.90;3.13;;;16.90;41.00;;;;;;5054929;28;20177;-77
2023/05/27 02:51:14;;;;;;;80.37;2.87;;;16.80;39.20;;;;;;5054403;28;20654;-77
2023/05/27 02:53:39;;;;;;;80.10;2.40;;;16.80;39.80;;;;;;5054699;28;20169;-77
2023/05/27 02:56:05;;;;;;;81.30;2.83;;;16.80;40.00;;;;;;5054497;28;20194;-77
2023/05/27 02:58:31;;;;;;;79.97;2.43;;;16.80;39.50;;;;;;5054483;28;20227;-76
2023/05/27 03:00:56;;;;;;;80.33;2.47;;;16.70;40.60;;;;;;5053417;28;20841;-78
2023/05/27 03:03:23;;;;;;;80.17;2.60;;;16.60;40.80;;;;;;5053715;28;20212;-77
2023/05/27 03:05:49;;;;;;;81.40;3.07;;;16.70;39.40;;;;;;5054435;28;20177;-76
2023/05/27 03:08:15;;;;;;;80.67;2.83;;;16.70;39.80;;;;;;5054524;28;20404;-76
2023/05/27 03:10:41;;;;;;;83.23;2.70;;;16.70;40.60;;;;;;5054403;28;20410;-78
2023/05/27 03:13:06;;;;;;;80.37;2.50;;;16.70;40.30;;;;;;5053443;28;21200;-77
2023/05/27 03:15:32;;;;;;;80.20;2.27;;;16.80;40.20;;;;;;5054322;28;20187;-77
2023/05/27 03:17:58;;;;;;;80.30;2.43;;;16.70;39.90;;;;;;5054368;28;20172;-77
2023/05/27 03:20:24;;;;;;;80.17;2.43;;;16.50;40.40;;;;;;5053932;28;20222;-77
2023/05/27 03:22:50;;;;;;;80.73;2.77;;;16.60;40.10;;;;;;5053256;28;20778;-77
2023/05/27 03:25:15;;;;;;;82.10;3.03;;;16.50;41.00;;;;;;5054690;28;20747;-77
2023/05/27 03:27:41;;;;;;;80.47;2.37;;;16.50;40.50;;;;;;5054359;28;20409;-77
2023/05/27 03:30:07;;;;;;;80.60;2.53;;;16.60;40.10;;;;;;5052865;28;20173;-77
2023/05/27 03:32:33;;;;;;;80.50;2.57;;;16.50;39.80;;;;;;5053118;28;20268;-77
2023/05/27 03:34:59;;;;;;;81.10;2.60;;;16.50;40.10;;;;;;5054303;28;20839;-77
2023/05/27 03:37:25;;;;;;;81.13;3.00;;;16.40;40.20;;;;;;5053903;28;20407;-77
2023/05/27 03:39:50;;;;;;;80.40;2.23;;;16.50;40.20;;;;;;5054138;28;20404;-78
2023/05/27 03:42:17;;;;;;;81.10;2.67;;;16.40;40.70;;;;;;5053481;28;20679;-77
2023/05/27 03:44:43;;;;;;;80.57;2.60;;;16.40;40.60;;;;;;5053152;28;20192;-77
2023/05/27 03:47:08;;;;;;;80.57;2.30;;;16.30;39.60;;;;;;5053863;28;20416;-77
2023/05/27 03:49:34;;;;;;;81.30;2.73;;;16.20;40.20;;;;;;5053711;28;20178;-77
2023/05/27 03:51:59;;;;;;;80.90;2.63;;;16.30;41.10;;;;;;5053664;28;20195;-78
2023/05/27 03:54:25;;;;;;;81.00;2.50;;;16.30;40.80;;;;;;5053096;28;20175;-78
2023/05/27 03:56:51;;;;;;;81.70;3.10;;;16.20;42.70;;;;;;5053389;28;20184;-77
2023/05/27 03:59:17;;;;;;;81.10;2.40;;;16.30;41.00;;;;;;5053828;28;20176;-77
2023/05/27 04:01:44;;;;;;;81.87;2.70;;;16.50;40.30;;;;;;5053567;28;20207;-77
2023/05/27 04:04:10;;;;;;;80.90;2.60;;;16.40;41.10;;;;;;5052604;28;20524;-78
2023/05/27 04:06:36;;;;;;;81.50;2.80;;;16.40;41.10;;;;;;5053472;28;20433;-77
2023/05/27 04:09:03;;;;;;;80.80;2.70;;;16.40;41.20;;;;;;5053504;28;20903;-77
2023/05/27 04:11:29;;;;;;;81.33;3.00;;;16.30;41.70;;;;;;5053532;28;21568;-76
2023/05/27 04:13:55;;;;;;;80.60;2.10;;;16.40;41.10;;;;;;5052526;28;20414;-77
2023/05/27 04:16:22;;;;;;;81.17;2.60;;;16.40;40.60;;;;;;5053433;28;20412;-77
2023/05/27 04:18:50;;;;;;;84.83;3.33;;;16.40;40.60;;;;;;5052983;28;20200;-77
2023/05/27 04:21:16;;;;;;;83.50;3.07;;;16.30;40.30;;;;;;5053124;28;20434;-76
2023/05/27 04:23:42;;;;;;;81.57;2.50;;;16.40;41.30;;;;;;5052408;28;20453;-77
2023/05/27 04:26:08;;;;;;;80.70;2.23;;;16.30;40.50;;;;;;5053403;28;20438;-77
2023/05/27 04:28:35;;;;;;;80.70;2.23;;;16.40;40.90;;;;;;5052491;28;20167;-77
2023/05/27 04:31:01;;;;;;;81.80;3.10;;;16.30;41.50;;;;;;5049664;28;20253;-76
2023/05/27 04:33:26;;;;;;;81.83;3.03;;;16.30;41.60;;;;;;5052128;28;21032;-76
2023/05/27 04:35:53;;;;;;;82.37;2.60;;;16.40;40.90;;;;;;5061029;28;20426;-77
2023/05/27 04:38:20;;;;;;;81.37;2.57;;;16.50;41.00;;;;;;5062936;28;20521;-77
2023/05/27 04:40:52;;;;;;;80.97;2.30;;;16.40;41.70;;;;;;5066204;28;20415;-77
2023/05/27 04:43:21;;;;;;;80.60;2.20;;;16.50;40.90;;;;;;5065778;28;20443;-77
2023/05/27 04:45:47;;;;;;;81.80;2.50;;;16.40;42.70;;;;;;5065127;28;20791;-76
2023/05/27 04:48:14;;;;;;;82.03;2.90;;;16.60;41.20;;;;;;5064966;28;20437;-77
2023/05/27 04:50:40;;;;;;;81.87;2.87;;;16.60;40.20;;;;;;5066279;28;21117;-77
2023/05/27 04:53:06;;;;;;;81.27;2.60;;;16.60;41.30;;;;;;5065749;28;20430;-77
2023/05/27 04:55:32;;;;;;;81.43;2.70;;;16.70;40.80;;;;;;5066841;28;20509;-77
2023/05/27 04:57:58;;;;;;;80.90;2.30;;;16.70;41.60;;;;;;5066415;28;20421;-77
2023/05/27 05:00:36;;;;;;;82.57;2.97;;;16.80;40.60;;;;;;5066316;28;20179;-77
2023/05/27 05:03:02;;;;;;;80.80;2.30;;;16.90;40.20;;;;;;5061963;28;20458;-78
2023/05/27 05:05:28;;;;;;;81.53;2.80;;;17.10;38.90;;;;;;5060881;28;20457;-77
2023/05/27 05:07:54;;;;;;;81.23;2.80;;;17.10;39.50;;;;;;5060605;28;20424;-77
2023/05/27 05:10:20;;;;;;;83.17;3.50;;;17.10;39.60;;;;;;5060112;28;20306;-77
2023/05/27 05:12:45;;;;;;;80.97;2.53;;;17.20;39.00;;;;;;5060028;28;20207;-78
2023/05/27 05:15:11;;;;;;;81.93;2.70;;;17.20;38.60;;;;;;5059820;28;20433;-77
2023/05/27 05:17:36;;;;;;;80.70;2.07;;;17.30;38.50;;;;;;5040699;28;20194;-77
2023/05/27 05:20:03;;;;;;;84.40;3.27;;;17.50;38.40;;;;;;5040527;28;20185;-78
2023/05/27 05:22:29;;;;;;;81.50;2.63;;;17.50;39.30;;;;;;5040350;28;20622;-78
2023/05/27 05:24:54;;;;;;;81.83;2.70;;;17.70;38.20;;;;;;5039009;28;20497;-77
2023/05/27 05:27:20;;;;;;;82.33;3.10;;;17.70;36.20;;;;;;5040764;28;20170;-78
2023/05/27 05:29:45;;;;;;;81.40;2.53;;;17.80;35.50;;;;;;5037146;28;20655;-78
2023/05/27 05:32:12;;;;;;;80.80;2.30;;;17.80;34.40;;;;;;5036352;28;20190;-78
2023/05/27 05:34:38;;;;;;;80.90;2.40;;;17.90;34.80;;;;;;5037935;28;20169;-77
2023/05/27 05:37:04;;;;;;;80.80;2.30;;;18.00;32.80;;;;;;5040987;28;20529;-78
2023/05/27 05:39:30;;;;;;;81.67;2.70;;;17.80;31.20;;;;;;5039672;28;20446;-77
2023/05/27 05:41:57;;;;;;;80.87;2.30;;;18.00;32.30;;;;;;5040541;28;20264;-77
2023/05/27 05:44:23;;;;;;;80.60;2.00;;;18.00;32.60;;;;;;5039330;28;20462;-77
2023/05/27 05:46:49;;;;;;;81.30;2.33;;;18.20;31.10;;;;;;5041201;28;20407;-78
2023/05/27 05:49:15;;;;;;;83.30;3.70;;;18.30;33.20;;;;;;5041002;28;20486;-78
2023/05/27 05:51:41;;;;;;;80.90;2.60;;;18.40;32.30;;;;;;5040637;28;20196;-78
2023/05/27 05:54:06;;;;;;;80.63;2.20;;;18.50;33.00;;;;;;5038705;28;20190;-78
2023/05/27 05:56:33;;;;;;;80.60;2.37;;;18.50;30.40;;;;;;5040043;28;20446;-77
2023/05/27 05:58:58;;;;;;;81.90;2.73;;;18.60;30.90;;;;;;5040101;28;20674;-77
2023/05/27 06:01:26;;;;;;;80.70;2.50;;;18.50;31.60;;;;;;5039358;28;20431;-77
2023/05/27 06:03:56;;;;;;;80.67;2.30;;;18.30;33.60;;;;;;5038482;28;20223;-77
2023/05/27 06:06:22;;;;;;;80.67;2.40;;;18.70;32.50;;;;;;5040427;28;20499;-77
2023/05/27 06:08:48;;;;;;;82.37;2.83;;;18.70;32.60;;;;;;5039204;28;20408;-77
2023/05/27 06:11:13;;;;;;;80.57;2.30;;;18.20;29.80;;;;;;5037789;28;20474;-77
2023/05/27 06:13:40;;;;;;;80.97;2.40;;;17.60;31.40;;;;;;5047766;28;20714;-77
2023/05/27 06:16:05;;;;;;;81.83;2.70;;;17.50;34.00;;;;;;5056033;28;20229;-77
2023/05/27 06:18:31;;;;;;;82.17;3.30;;;17.90;31.90;;;;;;5060062;28;20453;-78
2023/05/27 06:20:57;;;;;;;80.93;2.50;;;18.40;33.90;;;;;;5059556;28;20180;-78
2023/05/27 06:23:22;;;;;;;81.67;2.77;;;18.70;31.20;;;;;;5057640;28;20615;-77
2023/05/27 06:25:48;;;;;;;80.40;2.37;;;18.90;32.10;;;;;;5058793;28;20172;-78
2023/05/27 06:28:14;;;;;;;80.50;2.23;;;18.90;32.00;;;;;;5059067;28;20191;-77
2023/05/27 06:30:40;;;;;;;80.73;2.50;;;18.80;31.40;;;;;;5061322;28;20245;-77
2023/05/27 06:33:05;;;;;;;80.77;2.30;;;18.90;31.30;;;;;;5059384;28;20271;-77
2023/05/27 06:35:31;;;;;;;80.63;2.57;;;19.00;29.80;;;;;;5060160;28;20434;-77
2023/05/27 06:37:58;;;;;;;80.47;2.60;;;19.20;29.90;;;;;;5059805;28;20197;-77
2023/05/27 06:40:24;;;;;;;84.80;3.60;;;19.30;30.60;;;;;;5060213;28;20176;-77
2023/05/27 06:42:50;;;;;;;80.00;2.17;;;19.30;29.80;;;;;;5058934;28;20506;-77
2023/05/27 06:45:16;;;;;;;81.00;2.87;;;19.30;30.40;;;;;;5057190;28;20484;-78
2023/05/27 06:47:41;;;;;;;80.27;2.47;;;19.40;29.30;;;;;;5056029;28;20388;-78
2023/05/27 06:50:07;;;;;;;80.90;2.50;;;18.80;29.90;;;;;;5056056;28;20655;-78
2023/05/27 06:52:33;;;;;;;80.03;2.30;;;19.10;30.80;;;;;;5073902;28;20241;-78
2023/05/27 06:54:58;;;;;;;80.10;2.50;;;18.80;30.20;;;;;;5078531;28;20182;-77
2023/05/27 06:57:24;;;;;;;89.03;2.53;;;19.10;31.80;;;;;;5074376;28;20205;-78
2023/05/27 06:59:50;;;;;;;81.60;2.97;;;19.40;29.60;;;;;;5077124;28;20584;-77
2023/05/27 07:02:15;;;;;;;79.90;2.30;;;19.20;30.40;;;;;;5079529;28;20218;-77
2023/05/27 07:04:41;;;;;;;80.47;2.57;;;19.20;30.20;;;;;;5078150;28;20222;-78
2023/05/27 07:07:07;;;;;;;87.50;4.20;;;19.60;30.80;;;;;;5077589;28;20182;-78
2023/05/27 07:09:32;;;;;;;80.70;2.70;;;19.60;29.90;;;;;;5078792;28;20173;-78
2023/05/27 07:12:00;;;;;;;80.47;2.60;;;19.70;29.20;;;;;;5077680;28;20246;-78
2023/05/27 07:14:25;;;;;;;81.03;2.90;;;19.60;30.00;;;;;;5074732;28;20175;-77
2023/05/27 07:16:52;;;;;;;79.87;2.40;;;19.70;29.60;;;;;;5077577;28;20474;-78
2023/05/27 07:19:17;;;;;;;79.80;1.97;;;19.80;29.60;;;;;;5078956;28;20224;-78
2023/05/27 07:21:43;;;;;;;79.90;2.33;;;19.80;29.40;;;;;;5078444;28;20433;-78
2023/05/27 07:24:08;;;;;;;99.87;2.50;;;19.80;30.20;;;;;;5077877;28;20202;-78
2023/05/27 07:26:34;;;;;;;87.43;2.90;;;20.10;29.50;;;;;;5078422;28;20167;-78
2023/05/27 07:29:00;;;;;;;80.17;2.70;;;20.10;29.70;;;;;;5077810;28;20312;-78
2023/05/27 07:31:27;;;;;;;79.70;2.20;;;20.30;29.30;;;;;;5077748;28;20182;-78
2023/05/27 07:33:53;;;;;;;79.70;2.20;;;20.30;28.70;;;;;;5077857;28;20417;-78
2023/05/27 07:36:19;;;;;;;85.47;3.23;;;20.40;29.60;;;;;;5077715;28;20413;-78
2023/05/27 07:38:44;;;;;;;83.27;2.90;;;20.80;28.80;;;;;;5077770;28;20468;-77
2023/05/27 07:41:10;;;;;;;79.50;2.40;;;21.00;27.40;;;;;;5077916;28;20194;-78
2023/05/27 07:43:36;;;;;;;81.70;2.83;;;21.10;28.30;;;;;;5077878;28;20253;-78
2023/05/27 07:46:02;;;;;;;79.77;2.50;;;21.10;28.20;;;;;;5077795;28;20414;-78
2023/05/27 07:48:28;;;;;;;80.10;2.30;;;21.30;28.60;;;;;;5077155;28;20524;-78
2023/05/27 07:50:54;;;;;;;79.73;2.53;;;21.30;28.50;;;;;;5077558;28;20181;-78
2023/05/27 07:53:21;;;;;;;79.50;2.23;;;21.40;27.00;;;;;;5078415;28;21109;-78
2023/05/27 07:55:46;;;;;;;79.63;2.20;;;21.50;27.10;;;;;;5081723;28;20412;-78
2023/05/27 07:58:12;;;;;;;79.60;2.30;;;21.50;27.80;;;;;;5081100;28;20765;-78
2023/05/27 08:00:37;;;;;;;79.67;2.57;;;21.40;27.70;;;;;;5079811;28;20244;-77
2023/05/27 08:03:03;;;;;;;80.10;2.73;;;21.30;27.60;;;;;;5080389;28;20204;-78
2023/05/27 08:05:29;;;;;;;79.30;2.40;;;21.40;28.50;;;;;;5077962;28;20610;-78
2023/05/27 08:07:54;;;;;;;79.73;2.60;;;21.60;27.90;;;;;;5076960;28;20203;-77
2023/05/27 08:10:20;;;;;;;79.00;2.03;;;21.30;28.00;;;;;;5075764;28;20227;-78
2023/05/27 08:12:46;;;;;;;79.93;2.60;;;21.50;27.90;;;;;;5075320;28;20674;-78
2023/05/27 08:15:12;;;;;;;79.20;2.30;;;21.30;27.60;;;;;;5076837;28;20411;-77
2023/05/27 08:17:37;;;;;;;80.30;2.73;;;21.30;28.90;;;;;;5075894;28;20172;-78
2023/05/27 08:20:04;;;;;;;79.87;2.60;;;21.20;28.10;;;;;;5066558;28;20436;-78
2023/05/27 08:22:29;;;;;;;80.27;2.80;;;21.40;27.40;;;;;;5045880;28;20203;-78
2023/05/27 08:24:55;;;;;;;79.43;2.43;;;21.70;27.80;;;;;;5044341;28;20455;-78
2023/05/27 08:27:40;;;;;;;79.00;2.40;;;22.00;27.40;;;;;;5039048;28;20171;-78
2023/05/27 08:30:08;;;;;;;81.47;2.80;;;22.10;27.50;;;;;;5059055;28;20540;-77
2023/05/27 08:32:33;;;;;;;82.00;3.00;;;20.40;25.60;;;;;;5059542;28;20428;-78
2023/05/27 08:34:59;;;;;;;81.23;3.10;;;21.70;29.10;;;;;;5060243;28;20412;-78
2023/05/27 08:37:25;;;;;;;81.67;2.97;;;22.10;27.80;;;;;;5060164;28;20193;-78
2023/05/27 08:39:51;;;;;;;78.77;2.20;;;22.30;27.90;;;;;;5060546;28;20413;-78
2023/05/27 08:42:16;;;;;;;78.80;2.40;;;22.30;27.10;;;;;;5060466;28;20233;-78
2023/05/27 08:44:42;;;;;;;78.20;2.20;;;22.00;27.20;;;;;;5060011;28;20233;-78
2023/05/27 08:47:08;;;;;;;80.80;3.13;;;22.00;28.20;;;;;;5060950;28;20170;-78
2023/05/27 08:49:34;;;;;;;81.10;2.87;;;22.30;27.30;;;;;;5061198;28;20464;-78
2023/05/27 08:52:01;;;;;;;78.87;2.80;;;22.40;27.70;;;;;;5060904;28;20199;-78
2023/05/27 08:54:29;;;;;;;79.57;2.50;;;22.50;27.00;;;;;;5051221;28;20180;-78
2023/05/27 08:56:57;;;;;;;78.37;2.77;;;22.80;27.10;;;;;;5040141;28;20487;-78
2023/05/27 08:59:23;;;;;;;79.20;2.50;;;22.80;26.60;;;;;;5040362;28;20423;-78
2023/05/27 09:01:50;;;;;;;77.87;2.50;;;23.00;26.40;;;;;;5039912;28;20469;-78
2023/05/27 09:04:15;;;;;;;80.57;2.80;;;23.00;26.20;;;;;;5040011;28;20464;-78
2023/05/27 09:06:41;;;;;;;83.80;2.40;;;23.00;26.80;;;;;;5040847;28;20408;-78
2023/05/27 09:09:09;;;;;;;77.67;2.40;;;23.20;26.30;;;;;;5039959;28;20173;-78
2023/05/27 09:11:39;;;;;;;77.73;2.33;;;23.30;25.30;;;;;;5040581;28;20189;-78
2023/05/27 09:14:05;;;;;;;77.30;2.23;;;23.30;25.70;;;;;;5039092;28;20421;-78
2023/05/27 09:16:31;;;;;;;78.00;2.40;;;22.20;26.80;;;;;;5038664;28;20422;-78
2023/05/27 09:18:57;;;;;;;77.17;2.40;;;21.90;27.30;;;;;;5040042;28;20182;-78
2023/05/27 09:21:26;;;;;;;77.80;2.40;;;22.30;28.40;;;;;;5039286;28;20467;-79
2023/05/27 09:23:56;;;;;;;76.73;2.10;;;23.10;26.00;;;;;;5038047;28;20455;-78
2023/05/27 09:26:23;;;;;;;77.17;2.43;;;23.70;27.30;;;;;;5039870;28;20408;-77
2023/05/27 09:28:48;;;;;;;77.83;2.50;;;23.90;25.40;;;;;;5040324;28;20417;-78
2023/05/27 09:31:14;;;;;;;79.03;3.20;;;24.10;24.80;;;;;;5038127;28;20483;-78
2023/05/27 09:33:40;;;;;;;77.17;2.50;;;24.20;24.80;;;;;;5038109;28;20169;-77
2023/05/27 09:36:08;;;;;;;77.07;2.00;;;23.90;24.90;;;;;;5037904;28;20168;-78
2023/05/27 09:38:38;;;;;;;76.80;2.50;;;22.70;26.10;;;;;;5037271;28;20409;-79
2023/05/27 09:41:04;;;;;;;77.70;2.60;;;22.30;27.80;;;;;;5037979;28;20466;-78
2023/05/27 09:43:30;;;;;;;77.00;2.80;;;23.10;25.80;;;;;;5035775;28;20426;-78
2023/05/27 09:46:01;;;;;;;76.40;2.33;;;23.20;25.60;;;;;;5039492;28;20225;-78
2023/05/27 09:48:29;;;;;;;76.27;2.00;;;23.70;25.80;;;;;;5052154;28;20905;-79
2023/05/27 09:50:56;;;;;;;78.57;2.67;;;24.20;25.60;;;;;;5057355;28;20471;-79
2023/05/27 09:53:24;;;;;;;77.63;3.03;;;24.50;24.80;;;;;;5051419;28;20465;-78
2023/05/27 09:55:52;;;;;;;77.23;2.90;;;24.60;23.80;;;;;;5060376;28;20497;-78
2023/05/27 09:58:18;;;;;;;76.60;2.53;;;24.80;25.20;;;;;;5040832;28;20423;-78
2023/05/27 10:00:45;;;;;;;78.67;3.40;;;25.30;24.30;;;;;;5036503;28;20407;-78
2023/05/27 10:03:24;;;;;;;75.70;2.20;;;25.70;22.60;;;;;;5036266;28;20455;-78
2023/05/27 10:05:52;;;;;;;77.07;3.13;;;25.70;21.40;;;;;;5033369;28;20789;-79
2023/05/27 10:08:21;;;;;;;76.00;2.60;;;25.70;23.20;;;;;;5034334;28;20425;-79
2023/05/27 10:10:47;;;;;;;77.60;3.03;;;25.80;23.00;;;;;;5038898;28;20403;-78
2023/05/27 10:13:15;;;;;;;75.40;2.37;;;25.60;21.60;;;;;;5039318;28;20942;-78
2023/05/27 10:15:48;;;;;;;76.00;2.43;;;25.50;22.70;;;;;;5042340;28;20407;-78
2023/05/27 10:18:23;;;;;;;76.27;2.73;;;25.70;22.50;;;;;;5040998;28;20414;-77
2023/05/27 10:20:49;;;;;;;75.37;2.57;;;25.50;21.00;;;;;;5040989;28;20548;-79
2023/05/27 10:23:23;;;;;;;75.77;2.43;;;25.20;22.30;;;;;;5054859;28;20443;-79
2023/05/27 10:25:50;;;;;;;76.37;2.77;;;25.40;22.20;;;;;;5062941;28;20452;-79
2023/05/27 10:28:39;;;;;;;74.93;2.33;;;25.90;22.90;;;;;;5062611;28;20469;-78
2023/05/27 10:31:04;;;;;;;75.47;2.80;;;26.30;19.50;;;;;;5060938;28;20410;-79
2023/05/27 10:33:31;;;;;;;75.13;2.57;;;26.70;21.40;;;;;;5060347;28;20509;-79
2023/05/27 10:36:06;;;;;;;75.13;2.60;;;27.10;18.50;;;;;;5060568;28;20406;-79
2023/05/27 10:38:32;;;;;;;76.20;3.03;;;27.20;20.00;;;;;;5060972;28;20482;-78
2023/05/27 10:41:03;;;;;;;75.60;3.07;;;27.10;19.50;;;;;;5061076;28;20406;-79
2023/05/27 10:43:38;;;;;;;74.33;2.30;;;27.10;20.20;;;;;;5058587;28;20202;-79
2023/05/27 10:46:07;;;;;;;76.23;3.10;;;27.10;18.60;;;;;;5060205;28;20790;-78
2023/05/27 10:48:33;;;;;;;75.00;2.53;;;26.50;18.40;;;;;;5061614;28;20442;-78
2023/05/27 10:50:59;;;;;;;74.17;2.47;;;26.60;18.60;;;;;;5058876;28;20797;-78
2023/05/27 10:53:29;;;;;;;77.93;2.80;;;26.70;19.40;;;;;;5060046;28;20194;-78
2023/05/27 10:55:58;;;;;;;74.70;2.53;;;27.10;19.40;;;;;;5060246;28;20184;-78
2023/05/27 10:58:24;;;;;;;74.27;2.60;;;27.30;20.40;;;;;;5059760;28;20406;-77
2023/05/27 11:00:51;;;;;;;74.10;2.47;;;27.30;19.60;;;;;;5062461;28;20402;-78
2023/05/27 11:03:22;;;;;;;74.80;2.83;;;27.10;19.90;;;;;;5060146;28;20265;-78
2023/05/27 11:06:06;;;;;;;74.37;2.33;;;27.60;20.30;;;;;;5062412;28;20410;-78
2023/05/27 11:08:34;;;;;;;75.07;2.73;;;27.80;18.90;;;;;;5116402;22;20381;-74
2023/05/27 11:11:11;;;;;;;73.97;2.30;;;28.20;18.20;;;;;;5049151;28;20441;-71
2023/05/27 11:13:39;;;;;;;74.30;2.50;;;28.00;17.50;;;;;;5042833;28;21811;-71
2023/05/27 11:16:06;;;;;;;73.93;2.50;;;28.20;17.60;;;;;;5034236;28;20457;-72
2023/05/27 11:18:45;;;;;;;75.37;2.40;;;28.40;18.10;;;;;;5031691;28;20403;-72
2023/05/27 11:21:13;;;;;;;73.93;2.50;;;28.80;16.70;;;;;;5014763;28;20483;-71
2023/05/27 11:23:47;;;;;;;73.47;2.10;;;29.00;16.60;;;;;;5012580;28;20416;-71
2023/05/27 11:26:21;;;;;;;74.20;2.57;;;29.20;14.80;;;;;;5014315;28;20483;-72
2023/05/27 11:28:51;;;;;;;73.27;2.10;;;29.60;15.20;;;;;;5014669;28;20430;-72
2023/05/27 11:31:26;;;;;;;73.70;2.10;;;30.40;14.90;;;;;;5014366;28;20927;-72
2023/05/27 11:33:51;;;;;;;73.93;2.30;;;31.70;13.20;;;;;;5013808;28;20403;-73
2023/05/27 11:36:18;;;;;;;73.73;2.40;;;32.20;14.10;;;;;;5014254;28;20477;-74
2023/05/27 11:38:49;;;;;;;73.80;2.60;;;32.80;12.90;;;;;;5012304;28;20193;-73
2023/05/27 11:41:15;;;;;;;73.10;2.20;;;33.00;13.00;;;;;;5013030;28;20514;-75
2023/05/27 11:43:48;;;;;;;72.87;2.40;;;32.90;12.00;;;;;;5012339;28;20908;-74
2023/05/27 11:46:14;;;;;;;72.40;2.13;;;32.50;11.50;;;;;;5014079;28;20172;-73
2023/05/27 11:48:40;;;;;;;71.40;2.00;;;32.30;11.30;;;;;;5012744;28;20431;-73
2023/05/27 11:51:06;;;;;;;71.93;2.40;;;32.20;11.20;;;;;;5013999;28;20496;-74
2023/05/27 11:53:31;;;;;;;70.77;1.97;;;31.90;12.70;;;;;;5013640;28;20169;-74
2023/05/27 11:55:57;;;;;;;70.17;2.00;;;32.80;11.90;;;;;;5014271;28;20169;-73
2023/05/27 11:58:23;;;;;;;70.10;2.20;;;32.70;11.50;;;;;;5014607;28;20171;-74
2023/05/27 12:00:49;;;;;;;69.57;2.60;;;33.60;10.00;;;;;;5013903;28;20279;-73
2023/05/27 12:03:15;;;;;;;72.33;2.50;;;34.50;11.30;;;;;;5012867;28;20524;-74
2023/05/27 12:05:40;;;;;;;68.70;2.63;;;34.60;10.10;;;;;;5013805;28;20193;-73
2023/05/27 12:08:06;;;;;;;66.30;1.97;;;35.20;8.90;;;;;;5013810;28;20174;-73
2023/05/27 12:10:31;;;;;;;66.00;2.10;;;35.70;7.20;;;;;;5013358;28;20723;-74
2023/05/27 12:13:04;;;;;;;64.37;2.07;;;36.10;8.20;;;;;;5013010;28;20169;-74
2023/05/27 12:15:31;;;;;;;64.93;2.30;;;34.90;9.40;;;;;;5014121;28;20666;-72
2023/05/27 12:17:57;;;;;;;72.13;2.40;;;34.40;8.20;;;;;;5012451;28;20841;-72
2023/05/27 12:20:27;;;;;;;63.00;2.07;;;35.10;8.60;;;;;;5013643;28;20438;-72
2023/05/27 12:22:55;;;;;;;63.40;2.57;;;34.90;8.50;;;;;;5013233;28;20173;-72
2023/05/27 12:25:21;;;;;;;61.80;2.20;;;35.40;9.40;;;;;;5013169;28;20981;-73
2023/05/27 12:27:47;;;;;;;61.23;2.27;;;36.00;7.60;;;;;;5013520;28;20495;-74
2023/05/27 12:30:13;;;;;;;60.17;2.10;;;35.70;6.40;;;;;;5013306;28;20185;-72
2023/05/27 12:32:39;;;;;;;59.20;1.93;;;35.60;7.20;;;;;;5012822;28;20172;-72
2023/05/27 12:35:05;;;;;;;58.97;2.10;;;36.10;8.40;;;;;;5012109;28;20510;-73
2023/05/27 12:37:31;;;;;;;59.10;2.50;;;36.00;7.10;;;;;;5011938;28;20416;-73